createdAt,value
2018-07-09T00:02:15.802Z,23.10
2018-07-09T00:04:48.521Z,23.10
2018-07-09T00:07:20.862Z,23.10
2018-07-09T00:09:51.988Z,23.00
2018-07-09T00:14:52.925Z,23.10
2018-07-09T00:17:21.796Z,23.10
2018-07-09T00:19:52.688Z,23.10
2018-07-09T00:22:22.265Z,23.10
2018-07-09T00:24:52.037Z,23.10
2018-07-09T00:27:21.043Z,23.10
2018-07-09T00:29:52.813Z,23.20
2018-07-09T00:32:30.014Z,23.20
2018-07-09T00:35:04.846Z,23.20
2018-07-09T00:37:34.501Z,23.20
2018-07-09T00:40:04.601Z,23.10
2018-07-09T00:42:35.145Z,23.10
2018-07-09T00:45:09.893Z,23.20
2018-07-09T00:47:39.441Z,23.10
2018-07-09T00:50:15.902Z,23.10
2018-07-09T00:52:46.375Z,23.00
2018-07-09T00:55:22.410Z,22.90
2018-07-09T00:57:52.068Z,22.90
2018-07-09T01:00:22.145Z,22.80
2018-07-09T01:02:53.781Z,22.60
2018-07-09T01:05:25.399Z,22.60
2018-07-09T01:07:54.532Z,22.60
2018-07-09T01:10:25.182Z,22.60
2018-07-09T01:12:55.133Z,22.50
2018-07-09T01:15:28.865Z,22.40
2018-07-09T01:17:59.520Z,22.50
2018-07-09T01:20:28.966Z,22.30
2018-07-09T01:23:00.271Z,22.20
2018-07-09T01:25:34.665Z,22.30
2018-07-09T01:28:07.008Z,22.20
2018-07-09T01:30:37.829Z,22.10
2018-07-09T01:33:08.497Z,21.90
2018-07-09T01:35:37.929Z,21.80
2018-07-09T01:38:08.360Z,21.70
2018-07-09T01:40:40.553Z,21.60
2018-07-09T01:43:14.687Z,21.60
2018-07-09T01:45:45.709Z,21.50
2018-07-09T01:48:16.300Z,21.40
2018-07-09T01:50:49.472Z,21.40
2018-07-09T01:53:18.743Z,21.30
2018-07-09T01:55:50.840Z,21.30
2018-07-09T01:58:27.160Z,21.30
2018-07-09T02:00:55.988Z,21.30
2018-07-09T02:06:00.032Z,21.20
2018-07-09T02:08:30.366Z,21.20
2018-07-09T02:11:02.418Z,21.20
2018-07-09T02:13:32.172Z,21.10
2018-07-09T02:16:03.001Z,21.20
2018-07-09T02:18:33.218Z,21.20
2018-07-09T02:21:02.713Z,21.30
2018-07-09T02:23:32.985Z,21.20
2018-07-09T02:26:03.200Z,21.20
2018-07-09T02:28:33.708Z,21.40
2018-07-09T02:31:03.102Z,21.40
2018-07-09T02:33:33.794Z,21.30
2018-07-09T02:36:02.783Z,21.40
2018-07-09T02:38:33.156Z,21.30
2018-07-09T02:41:07.667Z,21.30
2018-07-09T02:43:37.586Z,21.40
2018-07-09T02:46:06.985Z,21.30
2018-07-09T02:48:38.422Z,21.20
2018-07-09T02:51:07.950Z,21.20
2018-07-09T02:53:38.412Z,21.30
2018-07-09T02:56:08.060Z,21.30
2018-07-09T02:58:37.444Z,21.40
2018-07-09T03:01:08.943Z,21.50
2018-07-09T03:03:44.035Z,21.50
2018-07-09T03:06:14.935Z,21.60
2018-07-09T03:08:45.372Z,21.60
2018-07-09T03:11:22.648Z,21.60
2018-07-09T03:13:51.862Z,21.50
2018-07-09T03:16:25.717Z,21.60
2018-07-09T03:18:55.534Z,21.60
2018-07-09T03:21:29.306Z,21.60
2018-07-09T03:23:59.928Z,21.60
2018-07-09T03:26:33.883Z,21.50
2018-07-09T03:29:04.370Z,21.50
2018-07-09T03:31:34.424Z,21.50
2018-07-09T03:34:10.116Z,21.60
2018-07-09T03:36:43.376Z,21.70
2018-07-09T03:39:13.384Z,21.70
2018-07-09T03:41:44.818Z,21.70
2018-07-09T03:44:15.474Z,21.80
2018-07-09T03:46:44.393Z,21.80
2018-07-09T03:49:14.918Z,21.80
2018-07-09T03:51:44.772Z,21.80
2018-07-09T03:54:15.549Z,21.80
2018-07-09T03:56:45.069Z,21.90
2018-07-09T03:59:24.687Z,21.80
2018-07-09T04:01:54.431Z,21.90
2018-07-09T04:04:23.708Z,21.90
2018-07-09T04:06:58.603Z,21.80
2018-07-09T04:09:27.860Z,21.90
2018-07-09T04:11:57.177Z,21.90
2018-07-09T04:14:26.798Z,21.80
2018-07-09T04:17:01.209Z,21.80
2018-07-09T04:19:30.941Z,21.90
2018-07-09T04:22:02.712Z,21.90
2018-07-09T04:24:33.384Z,21.90
2018-07-09T04:27:03.624Z,21.90
2018-07-09T04:29:34.161Z,22.00
2018-07-09T04:32:06.784Z,22.00
2018-07-09T04:34:35.749Z,22.00
2018-07-09T04:37:06.143Z,22.00
2018-07-09T04:39:36.425Z,22.10
2018-07-09T04:42:06.873Z,22.20
2018-07-09T04:44:39.560Z,22.20
2018-07-09T04:47:14.521Z,22.30
2018-07-09T04:49:44.102Z,22.30
2018-07-09T04:52:19.669Z,22.30
2018-07-09T04:54:48.558Z,22.30
2018-07-09T04:57:19.895Z,22.30
2018-07-09T04:59:51.066Z,22.30
2018-07-09T05:02:21.915Z,22.30
2018-07-09T05:04:51.642Z,22.40
2018-07-09T05:07:21.628Z,22.40
2018-07-09T05:09:51.735Z,22.50
2018-07-09T05:12:21.110Z,22.50
2018-07-09T05:14:52.128Z,22.60
2018-07-09T05:17:27.960Z,22.60
2018-07-09T05:19:57.878Z,22.60
2018-07-09T05:22:28.382Z,22.70
2018-07-09T05:24:58.849Z,22.80
2018-07-09T05:27:32.968Z,22.80
2018-07-09T05:30:02.528Z,22.90
2018-07-09T05:32:33.099Z,23.00
2018-07-09T05:35:02.362Z,23.00
2018-07-09T05:37:37.884Z,23.00
2018-07-09T05:40:08.614Z,23.10
2018-07-09T05:42:38.913Z,23.00
2018-07-09T05:45:09.311Z,23.20
2018-07-09T05:47:42.326Z,23.10
2018-07-09T05:50:16.286Z,23.00
2018-07-09T05:52:50.898Z,23.10
2018-07-09T05:55:22.641Z,23.10
2018-07-09T05:57:53.225Z,23.20
2018-07-09T06:00:24.012Z,23.30
2018-07-09T06:02:58.958Z,23.40
2018-07-09T06:05:29.021Z,23.40
2018-07-09T06:08:03.110Z,23.40
2018-07-09T06:10:35.033Z,23.40
2018-07-09T06:13:08.245Z,23.40
2018-07-09T06:15:40.293Z,23.30
2018-07-09T06:18:09.883Z,23.30
2018-07-09T06:20:41.591Z,23.40
2018-07-09T06:23:10.574Z,23.40
2018-07-09T06:25:42.193Z,23.40
2018-07-09T06:28:12.161Z,23.40
2018-07-09T06:30:41.509Z,23.30
2018-07-09T06:33:16.510Z,23.40
2018-07-09T06:35:50.540Z,23.40
2018-07-09T06:38:20.950Z,23.40
2018-07-09T06:40:50.058Z,23.50
2018-07-09T06:43:26.351Z,23.60
2018-07-09T06:45:56.736Z,23.50
2018-07-09T06:48:30.710Z,23.40
2018-07-09T06:51:05.252Z,23.50
2018-07-09T06:53:37.025Z,23.60
2018-07-09T06:56:07.227Z,23.50
2018-07-09T06:58:37.747Z,23.60
2018-07-09T07:01:08.474Z,23.70
2018-07-09T07:03:37.292Z,23.80
2018-07-09T07:06:08.637Z,23.90
2018-07-09T07:08:38.087Z,23.90
2018-07-09T07:11:08.979Z,23.90
2018-07-09T07:13:45.098Z,24.00
2018-07-09T07:16:15.892Z,23.90
2018-07-09T07:18:45.944Z,23.60
2018-07-09T07:21:15.431Z,23.60
2018-07-09T07:23:50.485Z,23.70
2018-07-09T07:26:24.329Z,23.80
2018-07-09T07:28:57.637Z,23.80
2018-07-09T07:31:28.371Z,23.90
2018-07-09T07:33:59.542Z,24.00
2018-07-09T07:36:29.718Z,23.90
2018-07-09T07:38:59.501Z,24.00
2018-07-09T07:41:33.300Z,24.20
2018-07-09T07:44:03.801Z,24.20
2018-07-09T07:46:34.614Z,24.30
2018-07-09T07:49:07.231Z,24.30
2018-07-09T07:51:37.955Z,24.40
2018-07-09T07:54:07.633Z,24.40
2018-07-09T07:56:43.542Z,24.30
2018-07-09T07:59:12.340Z,24.50
2018-07-09T08:01:43.054Z,24.40
2018-07-09T08:04:13.884Z,24.50
2018-07-09T08:06:45.081Z,24.60
2018-07-09T08:09:17.775Z,24.70
2018-07-09T08:11:49.258Z,24.70
2018-07-09T08:14:21.070Z,24.70
2018-07-09T08:16:51.050Z,24.60
2018-07-09T08:19:21.805Z,24.70
2018-07-09T08:21:55.326Z,24.80
2018-07-09T08:24:26.737Z,24.80
2018-07-09T08:26:57.157Z,24.80
2018-07-09T08:29:28.003Z,24.90
2018-07-09T08:32:02.414Z,25.00
2018-07-09T08:34:31.957Z,25.00
2018-07-09T08:37:07.867Z,24.90
2018-07-09T08:39:36.634Z,24.90
2018-07-09T08:42:06.031Z,24.80
2018-07-09T08:44:36.801Z,24.80
2018-07-09T08:47:06.212Z,24.80
2018-07-09T08:49:36.269Z,24.70
2018-07-09T08:52:05.476Z,24.80
2018-07-09T08:54:36.692Z,24.90
2018-07-09T08:57:10.405Z,24.70
2018-07-09T08:59:41.064Z,24.80
2018-07-09T09:02:12.333Z,24.80
2018-07-09T09:04:42.068Z,24.90
2018-07-09T09:07:12.871Z,24.90
2018-07-09T09:09:42.203Z,25.10
2018-07-09T09:12:21.365Z,25.00
2018-07-09T09:14:53.604Z,25.10
2018-07-09T09:17:24.228Z,25.20
2018-07-09T09:19:56.005Z,25.30
2018-07-09T09:22:25.773Z,25.40
2018-07-09T09:24:59.494Z,25.50
2018-07-09T09:27:34.780Z,25.40
2018-07-09T09:30:12.924Z,25.40
2018-07-09T09:32:43.000Z,25.40
2018-07-09T09:35:18.060Z,25.50
2018-07-09T09:37:52.044Z,25.50
2018-07-09T09:40:23.001Z,25.60
2018-07-09T09:42:53.930Z,25.50
2018-07-09T09:45:28.616Z,25.40
2018-07-09T09:47:59.121Z,25.60
2018-07-09T09:50:28.257Z,25.70
2018-07-09T09:53:02.864Z,25.80
2018-07-09T09:55:32.721Z,25.80
2018-07-09T09:58:06.559Z,25.90
2018-07-09T10:00:43.553Z,26.00
2018-07-09T10:03:13.308Z,26.00
2018-07-09T10:05:46.689Z,26.00
2018-07-09T10:08:16.752Z,26.10
2018-07-09T10:10:51.934Z,26.00
2018-07-09T10:13:25.662Z,26.10
2018-07-09T10:15:55.008Z,26.20
2018-07-09T10:18:25.804Z,26.30
2018-07-09T10:20:55.281Z,26.50
2018-07-09T10:23:25.146Z,26.40
2018-07-09T10:25:54.995Z,26.50
2018-07-09T10:28:30.085Z,26.50
2018-07-09T10:30:59.465Z,26.50
2018-07-09T10:33:28.446Z,26.70
2018-07-09T10:36:02.626Z,26.80
2018-07-09T10:38:38.192Z,26.80
2018-07-09T10:41:07.951Z,26.70
2018-07-09T10:43:45.373Z,26.80
2018-07-09T10:46:20.197Z,26.70
2018-07-09T10:48:58.039Z,26.70
2018-07-09T10:51:27.599Z,26.70
2018-07-09T10:53:58.513Z,26.80
2018-07-09T10:56:29.513Z,27.10
2018-07-09T10:59:01.154Z,27.10
2018-07-09T11:01:31.511Z,27.30
2018-07-09T11:04:01.968Z,27.10
2018-07-09T11:06:41.353Z,27.10
2018-07-09T11:09:13.058Z,27.10
2018-07-09T11:11:47.205Z,27.10
2018-07-09T11:14:21.926Z,27.10
2018-07-09T11:16:50.730Z,27.30
2018-07-09T11:19:21.529Z,27.40
2018-07-09T11:21:52.222Z,27.20
2018-07-09T11:24:22.481Z,27.20
2018-07-09T11:26:52.864Z,27.50
2018-07-09T11:29:29.041Z,27.70
2018-07-09T11:32:02.981Z,27.40
2018-07-09T11:34:31.904Z,27.50
2018-07-09T11:37:04.741Z,27.40
2018-07-09T11:39:34.354Z,27.50
2018-07-09T11:42:09.133Z,27.60
2018-07-09T11:44:45.517Z,27.60
2018-07-09T11:47:19.322Z,27.70
2018-07-09T11:49:54.620Z,27.90
2018-07-09T11:52:32.737Z,28.00
2018-07-09T11:55:08.263Z,28.10
2018-07-09T11:57:37.631Z,28.10
2018-07-09T12:00:08.341Z,28.10
2018-07-09T12:02:40.876Z,28.10
2018-07-09T12:05:10.494Z,28.20
2018-07-09T12:07:41.558Z,28.20
2018-07-09T12:10:16.388Z,28.10
2018-07-09T12:12:48.830Z,27.90
2018-07-09T12:15:18.345Z,27.90
2018-07-09T12:17:49.008Z,28.00
2018-07-09T12:20:20.010Z,27.90
2018-07-09T12:22:55.541Z,28.10
2018-07-09T12:25:33.689Z,28.10
2018-07-09T12:28:04.393Z,28.20
2018-07-09T12:30:33.741Z,28.30
2018-07-09T12:33:11.720Z,28.30
2018-07-09T12:35:43.119Z,28.40
2018-07-09T12:38:12.731Z,28.50
2018-07-09T12:40:43.772Z,28.40
2018-07-09T12:43:15.229Z,28.20
2018-07-09T12:45:44.980Z,28.30
2018-07-09T12:48:18.395Z,28.30
2018-07-09T12:50:52.974Z,28.30
2018-07-09T12:53:28.504Z,28.40
2018-07-09T12:55:57.751Z,28.40
2018-07-09T12:58:27.975Z,28.40
2018-07-09T13:01:02.071Z,28.50
2018-07-09T13:03:32.182Z,28.50
2018-07-09T13:06:02.276Z,28.70
2018-07-09T13:08:32.337Z,28.50
2018-07-09T13:11:06.874Z,28.50
2018-07-09T13:13:41.271Z,28.50
2018-07-09T13:16:16.602Z,28.60
2018-07-09T13:18:45.502Z,28.70
2018-07-09T13:21:15.595Z,28.80
2018-07-09T13:23:45.510Z,28.80
2018-07-09T13:26:15.335Z,28.80
2018-07-09T13:28:45.284Z,28.90
2018-07-09T13:31:20.997Z,29.10
2018-07-09T13:33:52.281Z,29.20
2018-07-09T13:36:21.306Z,29.10
2018-07-09T13:38:51.778Z,28.90
2018-07-09T13:41:22.053Z,28.90
2018-07-09T13:43:52.693Z,28.90
2018-07-09T13:46:21.473Z,28.90
2018-07-09T13:48:59.602Z,28.90
2018-07-09T13:51:30.018Z,28.70
2018-07-09T13:53:59.331Z,28.80
2018-07-09T13:58:57.842Z,28.90
2018-07-09T14:01:27.940Z,29.00
2018-07-09T14:03:56.657Z,29.20
2018-07-09T14:06:29.569Z,29.20
2018-07-09T14:09:00.244Z,29.00
2018-07-09T14:11:34.794Z,28.80
2018-07-09T14:14:04.404Z,28.80
2018-07-09T14:16:34.365Z,28.90
2018-07-09T14:21:26.968Z,29.20
2018-07-09T14:24:01.969Z,29.20
2018-07-09T14:26:37.421Z,29.20
2018-07-09T14:29:06.361Z,29.20
2018-07-09T14:31:37.306Z,29.10
2018-07-09T14:34:08.737Z,29.20
2018-07-09T14:36:39.152Z,29.30
2018-07-09T14:39:10.838Z,29.60
2018-07-09T14:41:42.138Z,29.60
2018-07-09T14:44:16.277Z,29.80
2018-07-09T14:46:47.025Z,29.80
2018-07-09T14:49:17.275Z,29.80
2018-07-09T14:51:47.833Z,29.90
2018-07-09T14:54:16.949Z,29.80
2018-07-09T14:56:45.892Z,29.60
2018-07-09T14:59:16.403Z,29.50
2018-07-09T15:01:45.788Z,29.50
2018-07-09T15:04:14.816Z,29.20
2018-07-09T15:06:44.552Z,29.10
2018-07-09T15:09:22.022Z,29.00
2018-07-09T15:11:52.040Z,28.90
2018-07-09T15:14:22.514Z,28.80
2018-07-09T15:16:53.248Z,29.00
2018-07-09T15:19:31.511Z,29.10
2018-07-09T15:22:03.606Z,29.30
2018-07-09T15:24:34.469Z,29.50
2018-07-09T15:29:41.713Z,29.50
2018-07-09T15:32:23.693Z,29.70
2018-07-09T15:34:54.187Z,29.70
2018-07-09T15:37:24.409Z,29.80
2018-07-09T15:39:55.602Z,29.60
2018-07-09T15:42:30.598Z,29.50
2018-07-09T15:45:03.918Z,29.20
2018-07-09T15:47:33.399Z,29.30
2018-07-09T15:50:04.335Z,29.40
2018-07-09T15:52:34.652Z,29.50
2018-07-09T15:55:04.871Z,29.70
2018-07-09T15:57:33.733Z,29.70
2018-07-09T16:00:05.157Z,29.80
2018-07-09T16:02:36.717Z,29.90
2018-07-09T16:05:07.175Z,29.90
2018-07-09T16:07:36.086Z,29.90
2018-07-09T16:10:06.725Z,30.00
2018-07-09T16:12:41.729Z,30.10
2018-07-09T16:15:11.437Z,30.30
2018-07-09T16:17:42.342Z,29.90
2018-07-09T16:20:13.016Z,29.70
2018-07-09T16:22:43.421Z,29.50
2018-07-09T16:25:15.519Z,29.70
2018-07-09T16:27:46.618Z,29.60
2018-07-09T16:30:17.002Z,29.30
2018-07-09T16:32:53.301Z,29.20
2018-07-09T16:35:23.285Z,29.30
2018-07-09T16:37:54.295Z,29.10
2018-07-09T16:40:24.819Z,29.10
2018-07-09T16:43:02.365Z,29.30
2018-07-09T16:45:33.078Z,29.30
2018-07-09T16:48:02.943Z,29.20
2018-07-09T16:50:32.764Z,29.10
2018-07-09T16:53:03.692Z,28.90
2018-07-09T16:55:34.125Z,28.90
2018-07-09T16:58:04.477Z,29.10
2018-07-09T17:00:33.790Z,29.20
2018-07-09T17:03:02.967Z,29.20
2018-07-09T17:05:40.385Z,29.20
2018-07-09T17:08:15.245Z,29.00
2018-07-09T17:10:44.829Z,28.90
2018-07-09T17:13:19.741Z,28.80
2018-07-09T17:15:49.680Z,28.90
2018-07-09T17:18:19.829Z,28.70
2018-07-09T17:20:49.784Z,28.60
2018-07-09T17:23:27.730Z,28.40
2018-07-09T17:25:57.414Z,28.20
2018-07-09T17:28:27.478Z,28.00
2018-07-09T17:31:01.613Z,27.70
2018-07-09T17:33:38.618Z,27.70
2018-07-09T17:36:15.504Z,27.50
2018-07-09T17:38:47.264Z,27.20
2018-07-09T17:41:17.096Z,27.00
2018-07-09T17:43:47.831Z,27.00
2018-07-09T17:46:22.327Z,26.70
2018-07-09T17:48:58.911Z,26.70
2018-07-09T17:51:29.326Z,26.70
2018-07-09T17:53:59.607Z,26.60
2018-07-09T17:56:30.065Z,26.40
2018-07-09T17:59:00.429Z,26.30
2018-07-09T18:01:29.152Z,26.30
2018-07-09T18:06:29.478Z,26.10
2018-07-09T18:08:59.374Z,26.00
2018-07-09T18:11:33.573Z,26.00
2018-07-09T18:14:11.739Z,26.00
2018-07-09T18:16:45.821Z,26.10
2018-07-09T18:19:19.188Z,26.10
2018-07-09T18:21:49.158Z,26.00
2018-07-09T18:24:25.446Z,26.00
2018-07-09T18:26:54.301Z,25.90
2018-07-09T18:29:23.910Z,25.90
2018-07-09T18:31:53.423Z,25.90
2018-07-09T18:34:23.907Z,25.80
2018-07-09T18:36:53.734Z,25.80
2018-07-09T18:39:22.941Z,25.90
2018-07-09T18:41:56.821Z,25.90
2018-07-09T18:44:30.542Z,25.90
2018-07-09T18:46:59.519Z,25.90
2018-07-09T18:49:29.841Z,25.90
2018-07-09T18:51:59.496Z,25.80
2018-07-09T18:54:28.368Z,25.80
2018-07-09T18:56:58.923Z,25.80
2018-07-09T18:59:28.681Z,25.80
2018-07-09T19:01:58.021Z,25.80
2018-07-09T19:04:29.630Z,25.80
2018-07-09T19:07:11.836Z,25.80
2018-07-09T19:09:41.204Z,25.90
2018-07-09T19:12:10.795Z,25.90
2018-07-09T19:14:43.773Z,25.90
2018-07-09T19:18:27.527Z,26.00
2018-07-09T19:21:39.107Z,25.90
2018-07-09T19:24:09.570Z,25.90
2018-07-09T19:26:38.224Z,25.90
2018-07-09T19:29:05.698Z,25.90
2018-07-09T19:31:33.801Z,25.90
2018-07-09T19:34:01.504Z,25.90
2018-07-09T19:36:29.103Z,25.90
2018-07-09T19:38:56.584Z,25.90
2018-07-09T19:41:24.384Z,25.80
2018-07-09T19:43:51.868Z,25.70
2018-07-09T19:46:20.203Z,25.60
2018-07-09T19:48:53.156Z,25.60
2018-07-09T19:51:21.284Z,25.60
2018-07-09T19:53:50.434Z,25.70
2018-07-09T19:56:18.956Z,25.80
2018-07-09T19:58:47.581Z,25.90
2018-07-09T20:01:15.151Z,25.90
2018-07-09T20:06:15.300Z,25.90
2018-07-09T20:08:48.729Z,26.00
2018-07-09T20:11:21.430Z,26.00
2018-07-09T20:14:07.764Z,26.00
2018-07-09T20:16:41.252Z,25.90
2018-07-09T20:19:10.370Z,25.90
2018-07-09T20:21:39.385Z,25.90
2018-07-09T20:24:06.844Z,25.90
2018-07-09T20:26:35.125Z,25.90
2018-07-09T20:29:03.934Z,25.90
2018-07-09T20:31:31.961Z,25.90
2018-07-09T20:34:00.522Z,25.90
2018-07-09T20:36:36.101Z,25.90
2018-07-09T20:39:05.879Z,25.80
2018-07-09T20:41:34.614Z,25.70
2018-07-09T20:44:03.412Z,25.70
2018-07-09T20:46:32.273Z,25.70
2018-07-09T20:49:05.848Z,25.70
2018-07-09T20:51:34.161Z,25.80
2018-07-09T20:54:01.631Z,25.80
2018-07-09T20:56:33.312Z,25.70
2018-07-09T20:59:00.715Z,25.80
2018-07-09T21:01:28.251Z,25.80
2018-07-09T21:04:00.852Z,25.90
2018-07-09T21:06:28.360Z,25.80
2018-07-09T21:08:55.765Z,25.80
2018-07-09T21:11:28.863Z,25.80
2018-07-09T21:13:56.993Z,25.80
2018-07-09T21:16:25.171Z,25.60
2018-07-09T21:18:58.683Z,25.60
2018-07-09T21:21:29.470Z,25.50
2018-07-09T21:23:58.647Z,25.40
2018-07-09T21:26:27.174Z,25.30
2018-07-09T21:28:54.884Z,25.20
2018-07-09T21:31:24.932Z,25.20
2018-07-09T21:33:53.217Z,25.20
2018-07-09T21:36:24.591Z,25.10
2018-07-09T21:38:53.286Z,25.00
2018-07-09T21:41:21.607Z,25.00
2018-07-09T21:43:54.761Z,25.10
2018-07-09T21:46:26.592Z,25.00
2018-07-09T21:48:54.636Z,25.00
2018-07-09T21:53:51.268Z,25.00
2018-07-09T21:56:20.274Z,25.00
2018-07-09T21:58:48.676Z,25.00
2018-07-09T22:01:17.967Z,25.00
2018-07-09T22:03:50.208Z,25.10
2018-07-09T22:06:18.751Z,25.10
2018-07-09T22:08:47.309Z,25.10
2018-07-09T22:11:14.757Z,25.10
2018-07-09T22:13:42.417Z,25.00
2018-07-09T22:16:09.847Z,25.00
2018-07-09T22:18:38.702Z,25.00
2018-07-09T22:21:06.788Z,24.90
2018-07-09T22:23:35.701Z,25.00
2018-07-09T22:26:03.422Z,24.80
2018-07-09T22:28:31.093Z,24.70
2018-07-09T22:31:01.624Z,24.50
2018-07-09T22:33:31.641Z,24.60
2018-07-09T22:36:00.920Z,24.40
2018-07-09T22:38:30.552Z,24.30
2018-07-09T22:41:09.949Z,24.30
2018-07-09T22:43:50.778Z,24.40
2018-07-09T22:46:20.020Z,24.20
2018-07-09T22:48:55.348Z,24.20
2018-07-09T22:51:24.932Z,24.20
2018-07-09T22:53:54.771Z,24.00
2018-07-09T22:56:29.706Z,24.10
2018-07-09T22:58:58.496Z,24.00
2018-07-09T23:01:28.437Z,24.00
2018-07-09T23:04:00.845Z,23.90
2018-07-09T23:06:37.969Z,24.00
2018-07-09T23:09:18.033Z,24.00
2018-07-09T23:14:02.977Z,24.00
2018-07-09T23:16:41.625Z,24.00
2018-07-09T23:19:25.703Z,24.00
2018-07-09T23:22:06.221Z,23.90
2018-07-09T23:24:34.849Z,23.90
2018-07-09T23:27:04.552Z,23.90
2018-07-09T23:32:02.096Z,23.90
2018-07-09T23:34:30.921Z,23.90
2018-07-09T23:37:00.538Z,23.90
2018-07-09T23:39:33.865Z,23.80
2018-07-09T23:42:01.630Z,23.90
2018-07-09T23:44:33.385Z,24.00
2018-07-09T23:47:01.332Z,24.00
2018-07-09T23:49:29.596Z,24.00
2018-07-09T23:52:03.410Z,24.00
2018-07-09T23:54:30.982Z,24.00
2018-07-09T23:59:13.864Z,24.00
